createdAt,value
2018-12-26T00:00:19.907Z,36.33
2018-12-26T00:02:48.882Z,35.67
2018-12-26T00:05:17.905Z,35.10
2018-12-26T00:07:46.917Z,40.03
2018-12-26T00:10:15.875Z,40.03
2018-12-26T00:12:45.480Z,38.77
2018-12-26T00:15:14.509Z,43.07
2018-12-26T00:17:43.524Z,39.20
2018-12-26T00:20:12.463Z,40.40
2018-12-26T00:22:41.465Z,41.80
2018-12-26T00:25:10.518Z,40.07
2018-12-26T00:27:39.585Z,42.13
2018-12-26T00:30:08.541Z,42.70
2018-12-26T00:32:37.565Z,42.70
2018-12-26T00:35:06.581Z,46.37
2018-12-26T00:37:35.633Z,50.80
2018-12-26T00:40:05.065Z,43.70
2018-12-26T00:42:34.143Z,39.60
2018-12-26T00:45:03.220Z,45.70
2018-12-26T00:47:32.260Z,43.10
2018-12-26T00:50:01.279Z,41.90
2018-12-26T00:52:30.225Z,46.73
2018-12-26T00:54:59.211Z,44.97
2018-12-26T00:57:28.158Z,40.17
2018-12-26T00:59:57.035Z,47.80
2018-12-26T01:02:26.492Z,43.97
2018-12-26T01:04:55.565Z,44.23
2018-12-26T01:07:24.679Z,48.93
2018-12-26T01:09:53.645Z,47.17
2018-12-26T01:12:23.761Z,43.27
2018-12-26T01:14:52.670Z,43.07
2018-12-26T01:17:21.711Z,38.33
2018-12-26T01:19:50.730Z,42.43
2018-12-26T01:22:19.731Z,48.93
2018-12-26T01:24:48.754Z,46.33
2018-12-26T01:27:17.764Z,43.97
2018-12-26T01:29:46.762Z,51.53
2018-12-26T01:32:15.646Z,44.47
2018-12-26T01:34:44.662Z,42.37
2018-12-26T01:37:13.656Z,45.27
2018-12-26T01:39:42.552Z,45.53
2018-12-26T01:42:11.689Z,44.53
2018-12-26T01:44:40.611Z,44.97
2018-12-26T01:47:09.542Z,46.87
2018-12-26T01:49:38.546Z,42.23
2018-12-26T01:52:07.478Z,49.87
2018-12-26T01:54:36.438Z,44.43
2018-12-26T01:57:05.364Z,46.77
2018-12-26T01:59:34.515Z,44.50
2018-12-26T02:02:03.641Z,45.13
2018-12-26T02:04:32.655Z,46.07
2018-12-26T02:07:01.660Z,54.53
2018-12-26T02:09:30.751Z,49.87
2018-12-26T02:11:59.814Z,46.97
2018-12-26T02:14:28.877Z,49.93
2018-12-26T02:16:57.873Z,51.30
2018-12-26T02:19:26.819Z,48.33
2018-12-26T02:21:55.833Z,46.17
2018-12-26T02:24:24.771Z,45.53
2018-12-26T02:26:53.806Z,46.80
2018-12-26T02:29:22.677Z,44.20
2018-12-26T02:31:51.632Z,52.60
2018-12-26T02:34:20.520Z,42.60
2018-12-26T02:36:49.463Z,53.90
2018-12-26T02:39:18.398Z,47.77
2018-12-26T02:41:47.416Z,48.33
2018-12-26T02:44:35.529Z,54.47
2018-12-26T02:47:04.729Z,48.80
2018-12-26T02:49:33.681Z,48.63
2018-12-26T02:52:02.721Z,49.07
2018-12-26T02:54:31.738Z,45.27
2018-12-26T02:57:00.742Z,48.33
2018-12-26T02:59:29.682Z,46.73
2018-12-26T03:01:58.647Z,43.53
2018-12-26T03:04:27.940Z,50.93
2018-12-26T03:06:57.073Z,42.43
2018-12-26T03:09:26.108Z,44.00
2018-12-26T03:11:55.183Z,46.03
2018-12-26T03:14:24.228Z,48.77
2018-12-26T03:16:53.322Z,39.90
2018-12-26T03:19:22.342Z,45.63
2018-12-26T03:21:51.398Z,39.23
2018-12-26T03:24:20.443Z,41.13
2018-12-26T03:26:56.085Z,46.53
2018-12-26T03:29:20.211Z,43.87
2018-12-26T03:31:49.144Z,42.57
2018-12-26T03:34:18.259Z,40.07
2018-12-26T03:36:47.268Z,40.20
2018-12-26T03:39:16.343Z,38.00
2018-12-26T03:41:45.360Z,39.23
2018-12-26T03:44:14.420Z,37.20
2018-12-26T03:46:43.632Z,37.83
2018-12-26T03:49:12.602Z,39.27
2018-12-26T03:51:41.635Z,42.07
2018-12-26T03:54:10.603Z,39.87
2018-12-26T03:56:39.629Z,39.07
2018-12-26T03:59:08.643Z,40.93
2018-12-26T04:01:37.565Z,35.67
2018-12-26T04:04:06.510Z,39.03
2018-12-26T04:06:35.529Z,37.50
2018-12-26T04:09:06.678Z,35.23
2018-12-26T04:11:35.664Z,34.77
2018-12-26T04:14:04.777Z,39.47
2018-12-26T04:16:33.711Z,34.13
2018-12-26T04:19:02.768Z,37.37
2018-12-26T04:21:31.799Z,37.63
2018-12-26T04:24:00.978Z,36.30
2018-12-26T04:26:30.297Z,32.63
2018-12-26T04:28:59.283Z,36.00
2018-12-26T04:31:28.278Z,39.10
2018-12-26T04:33:57.209Z,37.30
2018-12-26T04:36:26.236Z,34.37
2018-12-26T04:38:55.342Z,36.87
2018-12-26T04:41:24.459Z,38.80
2018-12-26T04:43:53.426Z,36.77
2018-12-26T04:46:22.427Z,31.73
2018-12-26T04:48:51.792Z,33.80
2018-12-26T04:51:20.729Z,34.87
2018-12-26T04:53:49.657Z,35.60
2018-12-26T04:56:18.691Z,36.50
2018-12-26T04:58:47.668Z,39.20
2018-12-26T05:01:16.651Z,38.33
2018-12-26T05:03:45.587Z,37.80
2018-12-26T05:06:14.705Z,35.43
2018-12-26T05:08:43.694Z,34.37
2018-12-26T05:11:12.679Z,34.73
2018-12-26T05:13:41.556Z,32.23
2018-12-26T05:16:10.601Z,35.63
2018-12-26T05:18:39.868Z,34.33
2018-12-26T05:21:08.953Z,31.03
2018-12-26T05:23:37.971Z,31.77
2018-12-26T05:26:06.976Z,32.70
2018-12-26T05:28:35.944Z,34.67
2018-12-26T05:31:05.006Z,31.27
2018-12-26T05:33:33.998Z,32.33
2018-12-26T05:36:03.061Z,33.83
2018-12-26T05:38:32.086Z,33.60
2018-12-26T05:41:01.217Z,31.77
2018-12-26T05:43:30.241Z,35.60
2018-12-26T05:45:59.202Z,33.70
2018-12-26T05:48:28.142Z,31.53
2018-12-26T05:50:57.232Z,28.73
2018-12-26T05:53:26.293Z,35.23
2018-12-26T05:55:55.230Z,32.00
2018-12-26T05:58:24.350Z,32.13
2018-12-26T06:00:53.427Z,32.20
2018-12-26T06:03:22.344Z,34.83
2018-12-26T06:05:51.380Z,31.97
2018-12-26T06:08:20.215Z,28.90
2018-12-26T06:10:49.172Z,33.43
2018-12-26T06:13:18.254Z,32.77
2018-12-26T06:15:47.179Z,28.70
2018-12-26T06:18:16.133Z,30.17
2018-12-26T06:20:45.712Z,35.03
2018-12-26T06:23:14.709Z,29.37
2018-12-26T06:25:46.562Z,28.80
2018-12-26T06:28:15.818Z,28.90
2018-12-26T06:30:45.107Z,32.93
2018-12-26T06:33:14.248Z,30.37
2018-12-26T06:35:43.280Z,30.90
2018-12-26T06:38:12.258Z,28.13
2018-12-26T06:40:41.257Z,29.83
2018-12-26T06:43:10.274Z,33.33
2018-12-26T06:45:39.339Z,32.43
2018-12-26T06:48:08.200Z,31.30
2018-12-26T06:50:37.120Z,28.10
2018-12-26T06:53:06.476Z,28.50
2018-12-26T06:55:35.402Z,32.80
2018-12-26T06:58:04.609Z,31.13
2018-12-26T07:00:33.611Z,35.10
2018-12-26T07:03:02.710Z,26.97
2018-12-26T07:05:32.087Z,33.67
2018-12-26T07:08:01.015Z,30.00
2018-12-26T07:10:30.062Z,29.50
2018-12-26T07:12:59.227Z,30.30
2018-12-26T07:15:28.309Z,26.97
2018-12-26T07:17:57.401Z,30.03
2018-12-26T07:20:26.360Z,30.10
2018-12-26T07:22:55.199Z,28.83
2018-12-26T07:25:24.327Z,33.83
2018-12-26T07:27:53.303Z,30.20
2018-12-26T07:30:22.216Z,31.50
2018-12-26T07:32:51.154Z,31.83
2018-12-26T07:35:22.976Z,29.83
2018-12-26T07:37:51.938Z,30.37
2018-12-26T07:40:20.878Z,32.63
2018-12-26T07:42:49.914Z,29.20
2018-12-26T07:45:20.116Z,31.17
2018-12-26T07:47:49.114Z,29.57
2018-12-26T07:50:18.160Z,29.67
2018-12-26T07:52:47.230Z,30.47
2018-12-26T07:55:16.387Z,29.67
2018-12-26T07:57:45.338Z,30.90
2018-12-26T08:00:14.420Z,29.13
2018-12-26T08:02:43.420Z,34.10
2018-12-26T08:05:12.436Z,31.20
2018-12-26T08:07:41.423Z,33.50
2018-12-26T08:10:10.400Z,30.93
2018-12-26T08:12:58.583Z,32.70
2018-12-26T08:15:27.575Z,30.70
2018-12-26T08:17:56.646Z,32.07
2018-12-26T08:20:25.809Z,28.80
2018-12-26T08:22:54.820Z,35.53
2018-12-26T08:25:23.853Z,35.47
2018-12-26T08:27:52.885Z,36.07
2018-12-26T08:30:21.874Z,34.70
2018-12-26T08:32:50.732Z,36.93
2018-12-26T08:35:19.790Z,32.80
2018-12-26T08:37:48.946Z,34.57
2018-12-26T08:40:18.038Z,39.67
2018-12-26T08:42:47.064Z,34.80
2018-12-26T08:45:16.150Z,35.60
2018-12-26T08:47:45.101Z,39.63
2018-12-26T08:50:14.106Z,37.67
2018-12-26T08:52:43.099Z,37.20
2018-12-26T08:55:12.130Z,38.57
2018-12-26T08:57:41.208Z,39.17
2018-12-26T09:00:10.148Z,35.57
2018-12-26T09:02:39.175Z,39.43
2018-12-26T09:05:08.035Z,45.77
2018-12-26T09:07:37.026Z,41.60
2018-12-26T09:10:06.707Z,38.27
2018-12-26T09:12:35.620Z,41.43
2018-12-26T09:15:05.075Z,44.53
2018-12-26T09:17:34.110Z,45.03
2018-12-26T09:20:02.960Z,42.83
2018-12-26T09:22:32.001Z,42.13
2018-12-26T09:25:01.016Z,46.17
2018-12-26T09:27:30.814Z,40.43
2018-12-26T09:29:59.876Z,46.07
2018-12-26T09:32:29.118Z,47.70
2018-12-26T09:34:58.170Z,44.47
2018-12-26T09:37:27.107Z,42.43
2018-12-26T09:39:56.094Z,39.10
2018-12-26T09:42:25.247Z,43.23
2018-12-26T09:44:54.787Z,44.50
2018-12-26T09:47:24.298Z,43.00
2018-12-26T09:49:53.278Z,49.17
2018-12-26T09:52:22.196Z,54.63
2018-12-26T09:54:51.138Z,50.77
2018-12-26T09:57:20.148Z,46.33
2018-12-26T09:59:49.229Z,46.03
2018-12-26T10:02:18.248Z,48.93
2018-12-26T10:04:47.274Z,45.73
2018-12-26T10:07:16.258Z,44.90
2018-12-26T10:09:45.306Z,41.63
2018-12-26T10:12:14.290Z,47.87
2018-12-26T10:14:43.294Z,49.17
2018-12-26T10:17:12.273Z,43.47
2018-12-26T10:19:41.486Z,47.87
2018-12-26T10:22:10.432Z,45.57
2018-12-26T10:24:39.467Z,45.70
2018-12-26T10:27:08.356Z,48.63
2018-12-26T10:29:37.398Z,43.67
2018-12-26T10:32:06.415Z,51.30
2018-12-26T10:34:35.326Z,44.03
2018-12-26T10:37:04.325Z,41.47
2018-12-26T10:39:33.310Z,48.23
2018-12-26T10:42:02.407Z,42.63
2018-12-26T10:44:31.581Z,45.17
2018-12-26T10:47:00.552Z,39.97
2018-12-26T10:49:29.559Z,39.47
2018-12-26T10:51:58.634Z,45.23
2018-12-26T10:54:27.717Z,41.20
2018-12-26T10:56:56.925Z,39.60
2018-12-26T10:59:25.980Z,44.50
2018-12-26T11:01:55.618Z,43.83
2018-12-26T11:04:24.606Z,48.23
2018-12-26T11:06:53.442Z,50.00
2018-12-26T11:09:22.405Z,38.67
2018-12-26T11:11:51.504Z,39.47
2018-12-26T11:14:23.485Z,46.57
2018-12-26T11:16:52.357Z,42.90
2018-12-26T11:19:21.397Z,43.57
2018-12-26T11:21:50.415Z,38.67
2018-12-26T11:24:19.371Z,43.73
2018-12-26T11:26:48.296Z,39.17
2018-12-26T11:29:18.724Z,36.10
2018-12-26T11:31:48.106Z,46.90
2018-12-26T11:34:17.228Z,36.03
2018-12-26T11:36:46.270Z,34.77
2018-12-26T11:39:15.234Z,36.67
2018-12-26T11:41:44.318Z,35.37
2018-12-26T11:44:13.315Z,34.97
2018-12-26T11:46:42.344Z,32.23
2018-12-26T11:49:11.201Z,34.00
2018-12-26T11:51:40.204Z,36.40
2018-12-26T11:54:09.157Z,32.27
2018-12-26T11:56:38.204Z,31.07
2018-12-26T11:59:07.187Z,28.03
2018-12-26T12:01:36.144Z,27.10
2018-12-26T12:04:05.071Z,27.23
2018-12-26T12:06:37.003Z,29.67
2018-12-26T12:09:07.327Z,35.27
2018-12-26T12:11:36.456Z,29.13
2018-12-26T12:14:08.177Z,29.63
2018-12-26T12:16:37.294Z,31.60
2018-12-26T12:19:06.254Z,28.70
2018-12-26T12:21:35.364Z,27.60
2018-12-26T12:24:04.655Z,26.73
2018-12-26T12:26:33.866Z,24.90
2018-12-26T12:29:02.974Z,24.73
2018-12-26T12:31:32.078Z,27.87
2018-12-26T12:34:01.122Z,22.70
2018-12-26T12:36:30.040Z,22.83
2018-12-26T12:38:59.058Z,25.77
2018-12-26T12:41:28.078Z,23.73
2018-12-26T12:43:57.248Z,27.30
2018-12-26T12:46:26.302Z,24.80
2018-12-26T12:48:55.321Z,23.63
2018-12-26T12:51:24.171Z,23.43
2018-12-26T12:53:53.240Z,23.07
2018-12-26T12:56:22.168Z,24.83
2018-12-26T12:58:51.113Z,22.23
2018-12-26T13:01:20.348Z,20.63
2018-12-26T13:03:49.256Z,22.03
2018-12-26T13:06:18.272Z,25.10
2018-12-26T13:08:47.390Z,25.73
2018-12-26T13:11:16.406Z,21.57
2018-12-26T13:13:45.401Z,23.90
2018-12-26T13:16:14.350Z,24.07
2018-12-26T13:18:43.348Z,22.30
2018-12-26T13:21:12.356Z,23.50
2018-12-26T13:23:41.304Z,24.00
2018-12-26T13:26:10.318Z,28.20
2018-12-26T13:28:39.419Z,24.37
2018-12-26T13:31:08.528Z,20.33
2018-12-26T13:33:37.562Z,25.53
2018-12-26T13:36:06.626Z,21.40
2018-12-26T13:38:36.360Z,24.00
2018-12-26T13:41:05.299Z,24.93
2018-12-26T13:43:34.663Z,23.67
2018-12-26T13:46:03.723Z,22.67
2018-12-26T13:48:32.633Z,22.17
2018-12-26T13:51:01.590Z,25.90
2018-12-26T13:53:30.591Z,23.53
2018-12-26T13:55:59.695Z,24.80
2018-12-26T13:58:28.626Z,24.50
2018-12-26T14:00:57.509Z,25.23
2018-12-26T14:03:26.555Z,26.70
2018-12-26T14:05:55.773Z,23.07
2018-12-26T14:08:31.501Z,22.50
2018-12-26T14:11:00.507Z,26.00
2018-12-26T14:13:48.627Z,24.17
2018-12-26T14:16:17.619Z,23.53
2018-12-26T14:18:46.767Z,32.00
2018-12-26T14:21:15.779Z,24.23
2018-12-26T14:23:44.780Z,24.73
2018-12-26T14:26:13.815Z,24.60
2018-12-26T14:28:43.188Z,24.60
2018-12-26T14:31:12.020Z,23.27
2018-12-26T14:33:40.993Z,24.73
2018-12-26T14:36:09.924Z,24.43
2018-12-26T14:38:38.850Z,25.83
2018-12-26T14:41:07.912Z,24.53
2018-12-26T14:43:36.980Z,27.37
2018-12-26T14:46:05.990Z,29.90
2018-12-26T14:48:35.118Z,26.33
2018-12-26T14:51:04.120Z,26.20
2018-12-26T14:53:33.112Z,28.63
2018-12-26T14:56:02.072Z,27.27
2018-12-26T14:58:30.994Z,27.00
2018-12-26T15:01:00.014Z,28.97
2018-12-26T15:03:29.012Z,28.67
2018-12-26T15:05:57.847Z,30.07
2018-12-26T15:08:26.749Z,25.90
2018-12-26T15:10:55.904Z,29.60
2018-12-26T15:13:24.904Z,25.50
2018-12-26T15:15:53.993Z,29.87
2018-12-26T15:18:22.927Z,26.40
2018-12-26T15:20:51.845Z,28.77
2018-12-26T15:23:20.834Z,24.43
2018-12-26T15:25:49.847Z,30.67
2018-12-26T15:28:18.836Z,28.83
2018-12-26T15:30:47.846Z,26.90
2018-12-26T15:33:17.058Z,30.77
2018-12-26T15:35:46.049Z,27.97
2018-12-26T15:38:15.109Z,29.33
2018-12-26T15:40:44.225Z,31.20
2018-12-26T15:43:13.301Z,26.73
2018-12-26T15:45:43.241Z,27.57
2018-12-26T15:48:12.225Z,31.50
2018-12-26T15:50:41.321Z,26.43
2018-12-26T15:53:10.339Z,28.03
2018-12-26T15:55:39.375Z,24.57
2018-12-26T15:58:10.282Z,31.77
2018-12-26T16:00:39.207Z,25.50
2018-12-26T16:03:08.222Z,29.23
2018-12-26T16:05:37.327Z,29.10
2018-12-26T16:08:06.334Z,27.83
2018-12-26T16:10:35.416Z,28.20
2018-12-26T16:13:04.462Z,30.17
2018-12-26T16:15:33.394Z,25.73
2018-12-26T16:18:02.457Z,30.37
2018-12-26T16:20:31.412Z,25.47
2018-12-26T16:23:00.495Z,28.27
2018-12-26T16:25:29.520Z,27.53
2018-12-26T16:27:58.478Z,27.60
2018-12-26T16:30:27.454Z,28.93
2018-12-26T16:32:56.541Z,24.00
2018-12-26T16:35:25.656Z,22.47
2018-12-26T16:38:01.568Z,26.70
2018-12-26T16:40:25.423Z,25.30
2018-12-26T16:42:54.512Z,23.67
2018-12-26T16:45:23.711Z,25.13
2018-12-26T16:47:52.800Z,23.07
2018-12-26T16:50:26.887Z,25.40
2018-12-26T16:52:52.718Z,22.47
2018-12-26T16:55:21.973Z,23.27
2018-12-26T16:57:51.029Z,26.40
2018-12-26T17:00:19.895Z,26.83
2018-12-26T17:02:49.007Z,27.97
2018-12-26T17:05:17.971Z,31.93
2018-12-26T17:07:46.955Z,32.77
2018-12-26T17:10:18.681Z,28.27
2018-12-26T17:12:47.755Z,31.10
2018-12-26T17:15:16.683Z,28.33
2018-12-26T17:17:45.877Z,26.27
2018-12-26T17:20:14.849Z,29.77
2018-12-26T17:22:43.915Z,30.33
2018-12-26T17:25:14.671Z,35.13
2018-12-26T17:27:43.881Z,33.40
2018-12-26T17:30:12.777Z,30.23
2018-12-26T17:32:41.788Z,29.30
2018-12-26T17:35:10.821Z,31.90
2018-12-26T17:37:39.821Z,28.97
2018-12-26T17:40:08.745Z,34.07
2018-12-26T17:42:37.701Z,28.93
2018-12-26T17:45:07.298Z,30.13
2018-12-26T17:47:36.470Z,33.57
2018-12-26T17:50:46.441Z,32.90
2018-12-26T17:53:53.897Z,31.37
2018-12-26T17:56:43.295Z,31.90
2018-12-26T17:59:19.386Z,34.00
2018-12-26T18:02:10.500Z,31.47
2018-12-26T18:04:40.262Z,34.77
2018-12-26T18:07:09.239Z,34.67
2018-12-26T18:09:38.438Z,33.90
2018-12-26T18:12:11.909Z,33.83
2018-12-26T18:14:38.315Z,32.53
2018-12-26T18:17:07.423Z,33.83
2018-12-26T18:19:36.750Z,37.23
2018-12-26T18:22:05.904Z,38.30
2018-12-26T18:24:35.022Z,36.70
2018-12-26T18:27:04.008Z,38.30
2018-12-26T18:29:32.980Z,34.97
2018-12-26T18:32:01.947Z,32.07
2018-12-26T18:34:31.043Z,36.77
2018-12-26T18:37:00.075Z,36.30
2018-12-26T18:39:29.341Z,35.83
2018-12-26T18:41:58.384Z,40.43
2018-12-26T18:44:27.241Z,37.73
2018-12-26T18:46:56.231Z,37.57
2018-12-26T18:49:25.233Z,34.60
2018-12-26T18:51:54.178Z,36.47
2018-12-26T18:54:23.195Z,33.80
2018-12-26T18:56:52.120Z,38.23
2018-12-26T18:59:21.103Z,38.03
2018-12-26T19:01:50.477Z,34.50
2018-12-26T19:04:19.688Z,38.27
2018-12-26T19:06:48.792Z,35.37
2018-12-26T19:09:17.739Z,38.27
2018-12-26T19:11:46.784Z,42.20
2018-12-26T19:14:15.868Z,43.93
2018-12-26T19:16:44.983Z,35.40
2018-12-26T19:19:14.017Z,34.57
2018-12-26T19:21:43.116Z,37.37
2018-12-26T19:24:12.230Z,35.80
2018-12-26T19:26:41.413Z,50.33
2018-12-26T19:29:10.568Z,45.50
2018-12-26T19:31:39.906Z,41.83
2018-12-26T19:34:09.287Z,37.53
2018-12-26T19:36:38.456Z,36.40
2018-12-26T19:39:08.066Z,41.00
2018-12-26T19:41:37.064Z,40.03
2018-12-26T19:44:06.102Z,37.77
2018-12-26T19:46:35.158Z,39.10
2018-12-26T19:49:04.282Z,32.73
2018-12-26T19:51:33.461Z,38.77
2018-12-26T19:54:02.552Z,34.90
2018-12-26T19:56:31.589Z,35.97
2018-12-26T19:59:00.723Z,37.37
2018-12-26T20:01:29.703Z,42.03
2018-12-26T20:03:58.828Z,38.80
2018-12-26T20:06:27.951Z,39.30
2018-12-26T20:08:57.019Z,39.90
2018-12-26T20:11:26.101Z,43.03
2018-12-26T20:13:55.057Z,38.13
2018-12-26T20:16:24.283Z,42.03
2018-12-26T20:18:53.372Z,41.77
2018-12-26T20:21:22.527Z,31.87
2018-12-26T20:23:51.641Z,36.80
2018-12-26T20:26:20.670Z,35.07
2018-12-26T20:28:49.735Z,44.50
2018-12-26T20:31:18.777Z,34.70
2018-12-26T20:33:47.909Z,34.97
2018-12-26T20:36:16.915Z,36.77
2018-12-26T20:38:45.869Z,37.53
2018-12-26T20:41:15.209Z,42.77
2018-12-26T20:43:44.246Z,35.03
2018-12-26T20:46:13.367Z,39.40
2018-12-26T20:48:42.422Z,40.40
2018-12-26T20:51:11.518Z,39.17
2018-12-26T20:53:40.708Z,35.30
2018-12-26T20:56:09.859Z,42.33
2018-12-26T20:58:38.898Z,38.80
2018-12-26T21:01:08.008Z,37.83
2018-12-26T21:03:37.019Z,37.03
2018-12-26T21:06:06.041Z,37.50
2018-12-26T21:08:35.165Z,39.10
2018-12-26T21:11:04.237Z,34.87
2018-12-26T21:13:33.240Z,35.13
2018-12-26T21:16:02.328Z,37.40
2018-12-26T21:18:31.510Z,34.60
2018-12-26T21:21:00.587Z,34.90
2018-12-26T21:23:29.694Z,33.83
2018-12-26T21:25:58.764Z,33.17
2018-12-26T21:28:27.884Z,35.17
2018-12-26T21:30:56.976Z,39.57
2018-12-26T21:33:26.057Z,32.63
2018-12-26T21:35:54.990Z,34.63
2018-12-26T21:38:23.965Z,36.43
2018-12-26T21:40:53.029Z,33.93
2018-12-26T21:43:22.035Z,39.27
2018-12-26T21:45:51.051Z,36.07
2018-12-26T21:48:19.971Z,39.97
2018-12-26T21:50:48.947Z,33.80
2018-12-26T21:53:17.979Z,36.83
2018-12-26T21:55:47.054Z,35.80
2018-12-26T21:58:16.029Z,35.57
2018-12-26T22:00:45.065Z,33.23
2018-12-26T22:03:14.057Z,36.20
2018-12-26T22:05:43.065Z,41.23
2018-12-26T22:08:12.130Z,36.53
2018-12-26T22:10:41.133Z,34.23
2018-12-26T22:13:10.165Z,35.07
2018-12-26T22:15:39.129Z,31.43
2018-12-26T22:18:08.133Z,36.07
2018-12-26T22:20:37.271Z,37.40
2018-12-26T22:23:06.307Z,37.63
2018-12-26T22:25:35.830Z,32.97
2018-12-26T22:28:05.031Z,36.93
2018-12-26T22:30:34.192Z,29.53
2018-12-26T22:33:03.111Z,35.00
2018-12-26T22:35:32.608Z,34.10
2018-12-26T22:38:01.751Z,34.10
2018-12-26T22:40:30.676Z,36.57
2018-12-26T22:42:59.622Z,38.83
2018-12-26T22:45:28.540Z,33.33
2018-12-26T22:47:57.548Z,31.23
2018-12-26T22:50:27.475Z,35.40
2018-12-26T22:52:56.678Z,31.23
2018-12-26T22:55:25.517Z,33.63
2018-12-26T22:57:54.501Z,30.07
2018-12-26T23:00:37.272Z,34.87
2018-12-26T23:03:25.446Z,33.33
2018-12-26T23:05:54.477Z,32.67
2018-12-26T23:08:23.456Z,37.80
2018-12-26T23:10:52.417Z,33.23
2018-12-26T23:13:21.377Z,30.37
2018-12-26T23:15:50.375Z,34.03
2018-12-26T23:18:19.301Z,31.87
2018-12-26T23:20:48.311Z,30.50
2018-12-26T23:23:17.240Z,32.43
2018-12-26T23:25:46.232Z,33.40
2018-12-26T23:28:34.411Z,31.67
2018-12-26T23:31:03.399Z,32.13
2018-12-26T23:33:32.359Z,32.37
2018-12-26T23:36:01.571Z,30.73
2018-12-26T23:38:30.494Z,34.20
2018-12-26T23:40:59.498Z,35.20
2018-12-26T23:43:28.524Z,31.20
2018-12-26T23:45:57.480Z,35.97
2018-12-26T23:48:26.422Z,30.93
2018-12-26T23:50:55.416Z,33.87
2018-12-26T23:53:24.425Z,30.40
2018-12-26T23:55:53.360Z,32.17
2018-12-26T23:58:22.387Z,32.93
